createdAt,value
2023-04-07T00:02:07.591Z,100.00
2023-04-07T00:04:54.723Z,100.00
2023-04-07T00:07:52.253Z,100.00
2023-04-07T00:10:43.410Z,100.00
2023-04-07T00:13:30.883Z,100.00
2023-04-07T00:16:18.062Z,100.00
2023-04-07T00:19:05.180Z,100.00
2023-04-07T00:21:52.209Z,100.00
2023-04-07T00:24:39.254Z,100.00
2023-04-07T00:27:26.527Z,100.00
2023-04-07T00:30:15.384Z,100.00
2023-04-07T00:33:02.512Z,100.00
2023-04-07T00:35:49.730Z,100.00
2023-04-07T00:38:36.900Z,100.00
2023-04-07T00:41:23.922Z,100.00
2023-04-07T00:44:11.006Z,100.00
2023-04-07T00:46:58.044Z,100.00
2023-04-07T00:49:45.121Z,100.00
2023-04-07T00:52:33.587Z,100.00
2023-04-07T00:55:20.667Z,100.00
2023-04-07T00:58:08.038Z,100.00
2023-04-07T01:01:33.975Z,100.00
2023-04-07T01:04:32.092Z,100.00
2023-04-07T01:07:22.079Z,100.00
2023-04-07T01:10:15.094Z,100.00
2023-04-07T01:13:09.140Z,100.00
2023-04-07T01:16:01.152Z,100.00
2023-04-07T01:18:52.424Z,100.00
2023-04-07T01:21:41.790Z,100.00
2023-04-07T01:24:57.068Z,100.00
2023-04-07T01:27:52.494Z,100.00
2023-04-07T01:30:41.948Z,100.00
2023-04-07T01:33:32.812Z,100.00
2023-04-07T01:36:21.679Z,100.00
2023-04-07T01:39:10.054Z,100.00
2023-04-07T01:41:58.187Z,100.00
2023-04-07T01:44:46.891Z,100.00
2023-04-07T01:47:37.614Z,100.00
2023-04-07T01:50:25.931Z,100.00
2023-04-07T01:53:14.300Z,100.00
2023-04-07T01:56:01.297Z,100.00
2023-04-07T01:58:48.638Z,100.00
2023-04-07T02:01:36.156Z,100.00
2023-04-07T02:05:00.354Z,100.00
2023-04-07T02:08:12.365Z,100.00
2023-04-07T02:11:01.242Z,100.00
2023-04-07T02:13:50.103Z,100.00
2023-04-07T02:16:39.762Z,100.00
2023-04-07T02:19:27.662Z,100.00
2023-04-07T02:22:16.652Z,100.00
2023-04-07T02:25:03.764Z,100.00
2023-04-07T02:27:50.948Z,100.00
2023-04-07T02:30:38.002Z,100.00
2023-04-07T02:33:25.085Z,100.00
2023-04-07T02:36:12.116Z,100.00
2023-04-07T02:38:59.154Z,100.00
2023-04-07T02:41:46.203Z,100.00
2023-04-07T02:44:33.207Z,100.00
2023-04-07T02:47:20.611Z,100.00
2023-04-07T02:50:08.149Z,100.00
2023-04-07T02:52:55.158Z,100.00
2023-04-07T02:55:42.211Z,100.00
2023-04-07T02:58:29.222Z,100.00
2023-04-07T03:01:16.324Z,100.00
2023-04-07T03:04:03.607Z,100.00
2023-04-07T03:06:50.766Z,100.00
2023-04-07T03:09:37.806Z,100.00
2023-04-07T03:12:24.875Z,100.00
2023-04-07T03:15:11.945Z,100.00
2023-04-07T03:17:59.032Z,100.00
2023-04-07T03:20:48.922Z,100.00
2023-04-07T03:23:36.380Z,100.00
2023-04-07T03:26:23.953Z,100.00
2023-04-07T03:29:11.147Z,100.00
2023-04-07T03:31:58.228Z,100.00
2023-04-07T03:34:45.411Z,100.00
2023-04-07T03:37:32.428Z,100.00
2023-04-07T03:40:19.856Z,100.00
2023-04-07T03:43:12.534Z,100.00
2023-04-07T03:45:59.717Z,100.00
2023-04-07T03:48:47.451Z,100.00
2023-04-07T03:51:34.494Z,100.00
2023-04-07T03:54:21.544Z,100.00
2023-04-07T03:57:08.633Z,100.00
2023-04-07T03:59:56.285Z,100.00
2023-04-07T04:02:43.592Z,100.00
2023-04-07T04:05:30.904Z,100.00
2023-04-07T04:08:17.967Z,100.00
2023-04-07T04:11:05.039Z,100.00
2023-04-07T04:13:52.261Z,100.00
2023-04-07T04:16:39.424Z,100.00
2023-04-07T04:19:26.550Z,100.00
2023-04-07T04:22:13.749Z,100.00
2023-04-07T04:25:01.341Z,100.00
2023-04-07T04:27:48.357Z,100.00
2023-04-07T04:30:35.563Z,100.00
2023-04-07T04:33:22.668Z,100.00
2023-04-07T04:36:09.817Z,100.00
2023-04-07T04:38:57.085Z,100.00
2023-04-07T04:41:45.123Z,100.00
2023-04-07T04:44:32.206Z,100.00
2023-04-07T04:47:19.782Z,100.00
2023-04-07T04:50:07.615Z,100.00
2023-04-07T04:52:54.669Z,100.00
2023-04-07T04:55:44.177Z,100.00
2023-04-07T04:58:31.417Z,100.00
2023-04-07T05:01:18.485Z,100.00
2023-04-07T05:04:05.984Z,100.00
2023-04-07T05:06:53.168Z,100.00
2023-04-07T05:09:40.204Z,100.00
2023-04-07T05:12:27.438Z,100.00
2023-04-07T05:15:15.709Z,100.00
2023-04-07T05:18:02.773Z,100.00
2023-04-07T05:20:50.427Z,100.00
2023-04-07T05:23:37.456Z,100.00
2023-04-07T05:26:24.613Z,100.00
2023-04-07T05:29:11.667Z,100.00
2023-04-07T05:31:58.746Z,100.00
2023-04-07T05:34:45.891Z,100.00
2023-04-07T05:37:33.016Z,100.00
2023-04-07T05:40:20.483Z,100.00
2023-04-07T05:43:07.662Z,100.00
2023-04-07T05:45:54.785Z,100.00
2023-04-07T05:48:42.229Z,100.00
2023-04-07T05:51:29.340Z,100.00
2023-04-07T05:54:16.726Z,100.00
2023-04-07T05:57:04.511Z,100.00
2023-04-07T05:59:53.953Z,100.00
2023-04-07T06:02:44.554Z,100.00
2023-04-07T06:06:26.193Z,100.00
2023-04-07T06:09:00.423Z,100.00
2023-04-07T06:11:52.498Z,100.00
2023-04-07T06:14:40.417Z,100.00
2023-04-07T06:17:37.365Z,100.00
2023-04-07T06:20:28.284Z,100.00
2023-04-07T06:23:15.463Z,100.00
2023-04-07T06:26:05.147Z,100.00
2023-04-07T06:28:52.700Z,100.00
2023-04-07T06:31:39.895Z,100.00
2023-04-07T06:34:28.070Z,100.00
2023-04-07T06:37:17.169Z,100.00
2023-04-07T06:40:04.844Z,100.00
2023-04-07T06:42:52.367Z,100.00
2023-04-07T06:45:39.616Z,100.00
2023-04-07T06:48:26.818Z,100.00
2023-04-07T06:51:13.976Z,100.00
2023-04-07T06:54:01.537Z,100.00
2023-04-07T06:56:54.670Z,100.00
2023-04-07T06:59:42.041Z,98.40
2023-04-07T07:02:29.236Z,90.41
2023-04-07T07:05:16.736Z,92.92
2023-04-07T07:08:03.989Z,86.05
2023-04-07T07:10:51.324Z,83.20
2023-04-07T07:13:38.540Z,76.69
2023-04-07T07:16:26.315Z,73.89
2023-04-07T07:19:15.055Z,75.86
2023-04-07T07:22:04.308Z,75.03
2023-04-07T07:24:51.571Z,75.54
2023-04-07T07:27:38.609Z,76.66
2023-04-07T07:30:26.500Z,75.97
2023-04-07T07:33:13.737Z,82.26
2023-04-07T07:36:03.140Z,81.13
2023-04-07T07:38:51.995Z,82.29
2023-04-07T07:41:39.121Z,81.33
2023-04-07T07:44:26.289Z,90.65
2023-04-07T07:47:13.488Z,83.74
2023-04-07T07:50:01.238Z,74.81
2023-04-07T07:52:48.469Z,71.68
2023-04-07T07:55:35.597Z,68.55
2023-04-07T07:58:22.957Z,67.48
2023-04-07T08:01:16.750Z,63.69
2023-04-07T08:04:04.050Z,70.03
2023-04-07T08:06:51.827Z,66.20
2023-04-07T08:09:38.992Z,63.59
2023-04-07T08:12:42.390Z,64.84
2023-04-07T08:15:29.616Z,59.27
2023-04-07T08:18:16.771Z,64.14
2023-04-07T08:21:10.468Z,58.53
2023-04-07T08:24:06.535Z,53.05
2023-04-07T08:26:53.739Z,50.03
2023-04-07T08:29:40.932Z,51.28
2023-04-07T08:32:38.724Z,48.89
2023-04-07T08:35:31.795Z,48.42
2023-04-07T08:38:19.088Z,49.68
2023-04-07T08:41:18.333Z,49.71
2023-04-07T08:44:07.169Z,51.32
2023-04-07T08:47:03.321Z,48.53
2023-04-07T08:50:21.792Z,48.71
2023-04-07T08:53:42.678Z,45.94
2023-04-07T08:56:44.192Z,45.31
2023-04-07T09:03:27.081Z,47.20
2023-04-07T09:09:57.789Z,39.55
2023-04-07T09:16:15.046Z,38.26
2023-04-07T09:19:05.178Z,38.27
2023-04-07T09:22:01.535Z,38.81
2023-04-07T09:24:49.495Z,37.87
2023-04-07T09:28:05.119Z,38.57
2023-04-07T09:31:02.031Z,39.18
2023-04-07T09:33:53.435Z,37.96
2023-04-07T09:36:43.248Z,37.92
2023-04-07T09:39:30.849Z,39.14
2023-04-07T09:42:18.015Z,38.83
2023-04-07T09:45:05.769Z,37.29
2023-04-07T09:47:53.712Z,38.07
2023-04-07T09:50:42.236Z,35.85
2023-04-07T09:53:43.034Z,37.22
2023-04-07T09:56:32.511Z,34.68
2023-04-07T09:59:21.618Z,34.97
2023-04-07T10:02:09.221Z,34.48
2023-04-07T10:05:11.170Z,36.29
2023-04-07T10:07:58.635Z,34.27
2023-04-07T10:10:47.804Z,33.84
2023-04-07T10:13:38.083Z,34.31
2023-04-07T10:16:25.887Z,34.77
2023-04-07T10:19:14.222Z,33.27
2023-04-07T10:22:03.299Z,33.23
2023-04-07T10:24:59.028Z,33.71
2023-04-07T10:27:54.044Z,34.70
2023-04-07T10:30:42.223Z,34.25
2023-04-07T10:33:53.700Z,34.75
2023-04-07T10:37:22.795Z,35.20
2023-04-07T10:40:19.365Z,34.53
2023-04-07T10:43:39.352Z,34.35
2023-04-07T10:46:52.294Z,34.69
2023-04-07T10:50:00.728Z,33.25
2023-04-07T10:53:04.827Z,31.57
2023-04-07T10:55:56.128Z,33.57
2023-04-07T10:58:43.616Z,34.22
2023-04-07T11:01:30.915Z,33.72
2023-04-07T11:04:18.447Z,34.28
2023-04-07T11:07:06.109Z,33.35
2023-04-07T11:10:12.190Z,32.46
2023-04-07T11:13:06.737Z,33.00
2023-04-07T11:15:57.099Z,31.77
2023-04-07T11:18:46.901Z,32.20
2023-04-07T11:21:34.115Z,31.53
2023-04-07T11:24:34.259Z,32.41
2023-04-07T11:27:21.744Z,33.41
2023-04-07T11:30:10.585Z,34.75
2023-04-07T11:32:57.884Z,34.23
2023-04-07T11:35:57.075Z,34.05
2023-04-07T11:38:47.211Z,34.59
2023-04-07T11:41:45.893Z,33.14
2023-04-07T11:44:33.004Z,32.50
2023-04-07T11:47:20.083Z,33.47
2023-04-07T11:50:07.934Z,33.45
2023-04-07T11:52:55.059Z,32.38
2023-04-07T11:55:42.215Z,34.43
2023-04-07T11:58:29.647Z,33.15
2023-04-07T12:01:16.882Z,33.77
2023-04-07T12:04:05.026Z,34.31
2023-04-07T12:06:52.176Z,34.11
2023-04-07T12:09:40.302Z,36.88
2023-04-07T12:12:30.044Z,36.81
2023-04-07T12:15:17.467Z,36.71
2023-04-07T12:18:04.912Z,34.59
2023-04-07T12:20:52.126Z,34.96
2023-04-07T12:23:39.205Z,35.86
2023-04-07T12:26:26.533Z,35.10
2023-04-07T12:29:14.450Z,35.32
2023-04-07T12:32:01.836Z,34.32
2023-04-07T12:34:51.721Z,36.30
2023-04-07T12:37:38.958Z,36.19
2023-04-07T12:40:29.596Z,34.96
2023-04-07T12:43:16.831Z,34.42
2023-04-07T12:46:04.033Z,34.52
2023-04-07T12:48:51.626Z,34.01
2023-04-07T12:51:40.251Z,34.92
2023-04-07T12:54:28.909Z,33.69
2023-04-07T12:57:16.331Z,34.29
2023-04-07T13:00:03.931Z,34.12
2023-04-07T13:02:51.334Z,33.61
2023-04-07T13:05:38.918Z,33.49
2023-04-07T13:08:35.080Z,33.90
2023-04-07T13:11:22.295Z,33.20
2023-04-07T13:14:09.721Z,34.51
2023-04-07T13:16:56.941Z,33.85
2023-04-07T13:19:47.024Z,34.73
2023-04-07T13:22:35.820Z,34.84
2023-04-07T13:25:29.250Z,33.98
2023-04-07T13:28:18.501Z,34.77
2023-04-07T13:31:05.918Z,35.00
2023-04-07T13:33:53.081Z,33.98
2023-04-07T13:36:40.708Z,34.54
2023-04-07T13:39:27.839Z,34.82
2023-04-07T13:42:17.659Z,34.89
2023-04-07T13:45:12.461Z,34.31
2023-04-07T13:47:59.700Z,34.78
2023-04-07T13:50:47.845Z,34.00
2023-04-07T13:53:36.465Z,35.49
2023-04-07T13:56:27.779Z,34.92
2023-04-07T13:59:15.080Z,35.83
2023-04-07T14:02:04.434Z,35.28
2023-04-07T14:05:05.091Z,34.78
2023-04-07T14:07:52.326Z,34.34
2023-04-07T14:10:44.607Z,34.27
2023-04-07T14:13:31.700Z,34.52
2023-04-07T14:16:19.036Z,36.03
2023-04-07T14:19:07.133Z,35.16
2023-04-07T14:21:54.299Z,34.52
2023-04-07T14:24:41.457Z,34.15
2023-04-07T14:27:31.376Z,33.78
2023-04-07T14:30:18.771Z,34.13
2023-04-07T14:33:06.054Z,35.29
2023-04-07T14:35:53.483Z,33.70
2023-04-07T14:38:41.184Z,34.70
2023-04-07T14:41:28.417Z,35.62
2023-04-07T14:44:16.218Z,36.73
2023-04-07T14:47:03.425Z,35.35
2023-04-07T14:49:53.224Z,34.37
2023-04-07T14:52:40.967Z,34.61
2023-04-07T14:55:28.345Z,37.26
2023-04-07T14:58:15.578Z,36.35
2023-04-07T15:01:05.621Z,37.58
2023-04-07T15:03:53.942Z,36.36
2023-04-07T15:06:42.968Z,36.04
2023-04-07T15:09:30.057Z,35.85
2023-04-07T15:12:17.199Z,36.76
2023-04-07T15:15:18.874Z,35.93
2023-04-07T15:18:06.000Z,36.94
2023-04-07T15:20:53.131Z,37.06
2023-04-07T15:23:42.236Z,37.53
2023-04-07T15:26:29.451Z,36.76
2023-04-07T15:29:16.616Z,37.22
2023-04-07T15:32:09.851Z,37.22
2023-04-07T15:34:56.900Z,37.55
2023-04-07T15:37:45.167Z,36.86
2023-04-07T15:40:32.157Z,36.71
2023-04-07T15:43:19.309Z,36.49
2023-04-07T15:46:06.447Z,37.03
2023-04-07T15:48:53.732Z,36.05
2023-04-07T15:51:41.046Z,36.01
2023-04-07T15:54:28.378Z,36.41
2023-04-07T15:57:16.861Z,36.20
2023-04-07T16:00:04.812Z,37.00
2023-04-07T16:02:52.002Z,37.35
2023-04-07T16:05:39.287Z,36.44
2023-04-07T16:08:26.373Z,36.27
2023-04-07T16:11:13.598Z,35.98
2023-04-07T16:14:00.741Z,35.96
2023-04-07T16:16:47.876Z,35.24
2023-04-07T16:19:35.164Z,35.86
2023-04-07T16:22:22.205Z,34.91
2023-04-07T16:25:09.689Z,35.12
2023-04-07T16:27:56.885Z,35.59
2023-04-07T16:30:44.075Z,35.56
2023-04-07T16:33:31.134Z,37.57
2023-04-07T16:36:18.246Z,37.04
2023-04-07T16:39:05.774Z,38.86
2023-04-07T16:41:53.012Z,39.24
2023-04-07T16:44:40.093Z,39.36
2023-04-07T16:47:28.242Z,37.96
2023-04-07T16:50:15.904Z,38.95
2023-04-07T16:53:02.959Z,39.24
2023-04-07T16:55:49.977Z,40.19
2023-04-07T16:58:36.964Z,40.09
2023-04-07T17:01:24.066Z,39.06
2023-04-07T17:04:11.267Z,40.28
2023-04-07T17:07:05.179Z,39.86
2023-04-07T17:09:52.287Z,40.71
2023-04-07T17:12:39.409Z,40.88
2023-04-07T17:15:26.555Z,41.14
2023-04-07T17:18:13.569Z,41.28
2023-04-07T17:21:00.704Z,41.04
2023-04-07T17:23:48.227Z,42.15
2023-04-07T17:26:35.671Z,41.48
2023-04-07T17:29:28.833Z,42.49
2023-04-07T17:32:15.904Z,42.07
2023-04-07T17:35:03.007Z,41.80
2023-04-07T17:37:50.896Z,42.45
2023-04-07T17:40:37.931Z,42.46
2023-04-07T17:43:25.051Z,43.14
2023-04-07T17:46:12.131Z,47.42
2023-04-07T17:48:59.332Z,46.16
2023-04-07T17:51:46.369Z,46.65
2023-04-07T17:54:34.050Z,46.63
2023-04-07T17:57:21.138Z,47.29
2023-04-07T18:00:09.205Z,49.22
2023-04-07T18:02:56.543Z,49.20
2023-04-07T18:05:45.053Z,50.74
2023-04-07T18:08:32.061Z,52.53
2023-04-07T18:11:19.291Z,53.24
2023-04-07T18:14:06.357Z,53.82
2023-04-07T18:16:54.787Z,55.49
2023-04-07T18:19:41.970Z,55.40
2023-04-07T18:22:29.020Z,55.23
2023-04-07T18:25:16.595Z,63.02
2023-04-07T18:28:04.288Z,63.47
2023-04-07T18:31:00.110Z,62.07
2023-04-07T18:33:47.423Z,60.51
2023-04-07T18:36:35.007Z,57.59
2023-04-07T18:39:22.284Z,57.69
2023-04-07T18:42:09.550Z,58.99
2023-04-07T18:44:56.820Z,59.71
2023-04-07T18:47:44.069Z,65.52
2023-04-07T18:50:31.138Z,67.63
2023-04-07T18:53:22.058Z,65.96
2023-04-07T18:56:09.173Z,66.75
2023-04-07T18:58:56.328Z,73.02
2023-04-07T19:01:43.432Z,73.26
2023-04-07T19:04:30.661Z,67.54
2023-04-07T19:07:17.757Z,68.58
2023-04-07T19:10:05.875Z,73.07
2023-04-07T19:12:53.052Z,73.50
2023-04-07T19:15:44.621Z,75.02
2023-04-07T19:18:32.005Z,73.80
2023-04-07T19:21:19.805Z,72.62
2023-04-07T19:24:07.517Z,69.34
2023-04-07T19:26:54.651Z,71.26
2023-04-07T19:29:41.713Z,85.71
2023-04-07T19:32:28.818Z,75.94
2023-04-07T19:35:17.045Z,75.64
2023-04-07T19:38:05.468Z,72.32
2023-04-07T19:40:52.683Z,75.86
2023-04-07T19:43:40.085Z,73.95
2023-04-07T19:46:27.218Z,73.41
2023-04-07T19:49:14.748Z,71.72
2023-04-07T19:52:01.839Z,71.01
2023-04-07T19:54:48.860Z,77.28
2023-04-07T19:57:36.066Z,70.27
2023-04-07T20:00:23.227Z,69.02
2023-04-07T20:03:10.747Z,70.70
2023-04-07T20:05:58.221Z,69.08
2023-04-07T20:08:45.327Z,68.71
2023-04-07T20:11:32.515Z,68.23
2023-04-07T20:14:22.170Z,68.55
2023-04-07T20:17:09.483Z,68.00
2023-04-07T20:19:56.522Z,68.34
2023-04-07T20:22:43.924Z,72.29
2023-04-07T20:25:31.062Z,74.13
2023-04-07T20:28:18.123Z,69.74
2023-04-07T20:31:05.258Z,68.33
2023-04-07T20:33:52.310Z,68.86
2023-04-07T20:36:39.390Z,70.26
2023-04-07T20:39:26.479Z,70.83
2023-04-07T20:42:13.974Z,74.57
2023-04-07T20:45:03.986Z,75.68
2023-04-07T20:47:51.121Z,73.86
2023-04-07T20:50:38.412Z,75.03
2023-04-07T20:53:25.899Z,78.55
2023-04-07T20:56:13.084Z,79.29
2023-04-07T20:59:00.105Z,78.71
2023-04-07T21:01:47.336Z,85.02
2023-04-07T21:04:34.431Z,89.63
2023-04-07T21:07:21.577Z,85.42
2023-04-07T21:10:09.781Z,87.03
2023-04-07T21:12:56.979Z,93.98
2023-04-07T21:15:44.286Z,86.20
2023-04-07T21:18:32.121Z,87.80
2023-04-07T21:21:19.343Z,89.58
2023-04-07T21:24:06.590Z,90.40
2023-04-07T21:26:54.379Z,91.25
2023-04-07T21:29:42.660Z,93.18
2023-04-07T21:32:29.705Z,92.59
2023-04-07T21:35:17.624Z,91.29
2023-04-07T21:38:04.692Z,90.64
2023-04-07T21:40:51.954Z,84.38
2023-04-07T21:43:39.115Z,80.86
2023-04-07T21:46:26.642Z,81.59
2023-04-07T21:49:21.979Z,87.21
2023-04-07T21:52:09.100Z,87.06
2023-04-07T21:54:56.459Z,87.89
2023-04-07T21:57:43.887Z,88.26
2023-04-07T22:00:31.539Z,96.11
2023-04-07T22:03:19.499Z,94.06
2023-04-07T22:06:07.473Z,94.49
2023-04-07T22:09:01.212Z,96.80
2023-04-07T22:11:48.986Z,98.09
2023-04-07T22:14:36.153Z,96.63
2023-04-07T22:17:23.218Z,96.94
2023-04-07T22:20:11.320Z,98.82
2023-04-07T22:22:58.585Z,96.85
2023-04-07T22:25:46.259Z,97.10
2023-04-07T22:28:33.576Z,96.21
2023-04-07T22:31:20.756Z,100.00
2023-04-07T22:34:09.074Z,100.00
2023-04-07T22:36:56.288Z,100.00
2023-04-07T22:39:46.293Z,100.00
2023-04-07T22:42:33.225Z,100.00
2023-04-07T22:45:21.058Z,100.00
2023-04-07T22:48:08.404Z,100.00
2023-04-07T22:50:55.742Z,100.00
2023-04-07T22:53:42.806Z,100.00
2023-04-07T22:56:29.824Z,100.00
2023-04-07T22:59:17.005Z,100.00
2023-04-07T23:03:33.502Z,100.00
2023-04-07T23:06:20.738Z,100.00
2023-04-07T23:09:07.898Z,100.00
2023-04-07T23:11:54.986Z,100.00
2023-04-07T23:14:42.006Z,100.00
2023-04-07T23:17:29.114Z,100.00
2023-04-07T23:20:16.370Z,100.00
2023-04-07T23:23:03.625Z,100.00
2023-04-07T23:25:50.645Z,100.00
2023-04-07T23:28:37.740Z,100.00
2023-04-07T23:31:24.911Z,100.00
2023-04-07T23:34:12.149Z,100.00
2023-04-07T23:36:59.207Z,100.00
2023-04-07T23:39:46.671Z,100.00
2023-04-07T23:42:33.771Z,100.00
2023-04-07T23:45:20.810Z,100.00
2023-04-07T23:48:07.909Z,100.00
2023-04-07T23:50:54.993Z,100.00
2023-04-07T23:53:42.047Z,100.00
2023-04-07T23:56:29.189Z,100.00
2023-04-07T23:59:16.538Z,100.00
